sensor_id;sensor_type;location;lat;lon;timestamp;P1;durP1;ratioP1;P2;durP2;ratioP2
57319;SDS011;43158;51.026;18.190;2023-02-28T00:02:22;19.10;;;17.20;;
57319;SDS011;43158;51.026;18.190;2023-02-28T00:04:48;16.90;;;14.80;;
57319;SDS011;43158;51.026;18.190;2023-02-28T00:07:18;15.50;;;13.30;;
57319;SDS011;43158;51.026;18.190;2023-02-28T00:09:45;23.10;;;18.60;;
57319;SDS011;43158;51.026;18.190;2023-02-28T00:12:11;18.00;;;15.20;;
57319;SDS011;43158;51.026;18.190;2023-02-28T00:14:37;25.80;;;22.70;;
57319;SDS011;43158;51.026;18.190;2023-02-28T00:17:03;21.70;;;18.10;;
57319;SDS011;43158;51.026;18.190;2023-02-28T00:19:30;9.80;;;8.90;;
57319;SDS011;43158;51.026;18.190;2023-02-28T00:21:56;10.40;;;9.30;;
57319;SDS011;43158;51.026;18.190;2023-02-28T00:24:22;32.70;;;27.50;;
57319;SDS011;43158;51.026;18.190;2023-02-28T00:26:48;16.40;;;13.10;;
57319;SDS011;43158;51.026;18.190;2023-02-28T00:29:14;20.70;;;16.00;;
57319;SDS011;43158;51.026;18.190;2023-02-28T00:31:40;15.80;;;13.00;;
57319;SDS011;43158;51.026;18.190;2023-02-28T00:34:06;15.20;;;13.40;;
57319;SDS011;43158;51.026;18.190;2023-02-28T00:36:32;24.40;;;18.40;;
57319;SDS011;43158;51.026;18.190;2023-02-28T00:38:58;20.50;;;17.70;;
57319;SDS011;43158;51.026;18.190;2023-02-28T00:41:24;13.40;;;11.90;;
57319;SDS011;43158;51.026;18.190;2023-02-28T00:43:49;15.60;;;12.10;;
57319;SDS011;43158;51.026;18.190;2023-02-28T00:46:15;15.20;;;12.10;;
57319;SDS011;43158;51.026;18.190;2023-02-28T00:48:41;14.60;;;12.20;;
57319;SDS011;43158;51.026;18.190;2023-02-28T00:51:07;16.80;;;15.10;;
57319;SDS011;43158;51.026;18.190;2023-02-28T00:53:33;14.20;;;12.70;;
57319;SDS011;43158;51.026;18.190;2023-02-28T00:55:59;15.90;;;13.90;;
57319;SDS011;43158;51.026;18.190;2023-02-28T00:58:25;22.30;;;17.50;;
57319;SDS011;43158;51.026;18.190;2023-02-28T01:00:52;13.40;;;12.10;;
57319;SDS011;43158;51.026;18.190;2023-02-28T01:03:19;20.30;;;16.50;;
57319;SDS011;43158;51.026;18.190;2023-02-28T01:05:45;11.00;;;9.50;;
57319;SDS011;43158;51.026;18.190;2023-02-28T01:08:12;19.70;;;15.90;;
57319;SDS011;43158;51.026;18.190;2023-02-28T01:10:39;21.10;;;17.40;;
57319;SDS011;43158;51.026;18.190;2023-02-28T01:13:05;19.60;;;16.80;;
57319;SDS011;43158;51.026;18.190;2023-02-28T01:15:31;12.80;;;11.50;;
57319;SDS011;43158;51.026;18.190;2023-02-28T01:17:58;16.30;;;13.40;;
57319;SDS011;43158;51.026;18.190;2023-02-28T01:20:24;14.70;;;12.70;;
57319;SDS011;43158;51.026;18.190;2023-02-28T01:22:49;16.40;;;14.50;;
57319;SDS011;43158;51.026;18.190;2023-02-28T01:25:15;18.20;;;16.40;;
57319;SDS011;43158;51.026;18.190;2023-02-28T01:27:41;15.80;;;14.20;;
57319;SDS011;43158;51.026;18.190;2023-02-28T01:30:07;17.70;;;15.80;;
57319;SDS011;43158;51.026;18.190;2023-02-28T01:32:34;19.10;;;17.20;;
57319;SDS011;43158;51.026;18.190;2023-02-28T01:35:00;17.80;;;15.90;;
57319;SDS011;43158;51.026;18.190;2023-02-28T01:37:26;16.30;;;14.10;;
57319;SDS011;43158;51.026;18.190;2023-02-28T01:39:52;18.00;;;16.00;;
57319;SDS011;43158;51.026;18.190;2023-02-28T01:42:18;17.60;;;15.80;;
57319;SDS011;43158;51.026;18.190;2023-02-28T01:47:35;14.40;;;13.00;;
57319;SDS011;43158;51.026;18.190;2023-02-28T01:50:02;12.10;;;10.90;;
57319;SDS011;43158;51.026;18.190;2023-02-28T01:52:30;13.50;;;12.10;;
57319;SDS011;43158;51.026;18.190;2023-02-28T01:54:57;13.30;;;11.30;;
57319;SDS011;43158;51.026;18.190;2023-02-28T01:57:29;13.60;;;10.70;;
57319;SDS011;43158;51.026;18.190;2023-02-28T02:02:26;12.60;;;11.10;;
57319;SDS011;43158;51.026;18.190;2023-02-28T02:04:54;10.70;;;9.60;;
57319;SDS011;43158;51.026;18.190;2023-02-28T02:07:20;13.20;;;10.40;;
57319;SDS011;43158;51.026;18.190;2023-02-28T02:09:46;16.20;;;13.90;;
57319;SDS011;43158;51.026;18.190;2023-02-28T02:12:23;22.80;;;16.70;;
57319;SDS011;43158;51.026;18.190;2023-02-28T02:15:12;21.30;;;16.20;;
57319;SDS011;43158;51.026;18.190;2023-02-28T02:17:40;17.90;;;13.50;;
57319;SDS011;43158;51.026;18.190;2023-02-28T02:38:08;14.80;;;12.70;;
57319;SDS011;43158;51.026;18.190;2023-02-28T02:40:36;13.80;;;12.50;;
57319;SDS011;43158;51.026;18.190;2023-02-28T02:43:07;16.10;;;14.50;;
57319;SDS011;43158;51.026;18.190;2023-02-28T02:45:35;16.90;;;15.10;;
57319;SDS011;43158;51.026;18.190;2023-02-28T02:48:03;17.90;;;15.40;;
57319;SDS011;43158;51.026;18.190;2023-02-28T02:50:31;17.70;;;15.80;;
57319;SDS011;43158;51.026;18.190;2023-02-28T02:53:00;18.40;;;16.50;;
57319;SDS011;43158;51.026;18.190;2023-02-28T02:55:27;21.90;;;17.10;;
57319;SDS011;43158;51.026;18.190;2023-02-28T02:57:54;20.20;;;18.10;;
57319;SDS011;43158;51.026;18.190;2023-02-28T03:00:23;19.80;;;17.50;;
57319;SDS011;43158;51.026;18.190;2023-02-28T03:02:50;20.20;;;18.10;;
57319;SDS011;43158;51.026;18.190;2023-02-28T03:05:23;21.70;;;18.20;;
57319;SDS011;43158;51.026;18.190;2023-02-28T03:07:49;20.20;;;18.10;;
57319;SDS011;43158;51.026;18.190;2023-02-28T03:10:32;21.20;;;18.90;;
57319;SDS011;43158;51.026;18.190;2023-02-28T03:13:11;31.20;;;23.30;;
57319;SDS011;43158;51.026;18.190;2023-02-28T03:15:42;85.00;;;43.80;;
57319;SDS011;43158;51.026;18.190;2023-02-28T03:18:20;31.90;;;23.10;;
57319;SDS011;43158;51.026;18.190;2023-02-28T03:20:52;30.10;;;24.10;;
57319;SDS011;43158;51.026;18.190;2023-02-28T03:26:17;22.00;;;19.30;;
57319;SDS011;43158;51.026;18.190;2023-02-28T03:28:52;46.30;;;29.20;;
57319;SDS011;43158;51.026;18.190;2023-02-28T03:33:47;44.00;;;29.30;;
57319;SDS011;43158;51.026;18.190;2023-02-28T03:36:21;23.70;;;20.60;;
57319;SDS011;43158;51.026;18.190;2023-02-28T03:38:49;22.80;;;18.00;;
57319;SDS011;43158;51.026;18.190;2023-02-28T03:43:46;116.00;;;53.10;;
57319;SDS011;43158;51.026;18.190;2023-02-28T03:46:15;81.70;;;41.10;;
57319;SDS011;43158;51.026;18.190;2023-02-28T03:48:46;67.70;;;38.10;;
57319;SDS011;43158;51.026;18.190;2023-02-28T03:51:15;27.90;;;22.60;;
57319;SDS011;43158;51.026;18.190;2023-02-28T03:53:44;27.20;;;20.50;;
57319;SDS011;43158;51.026;18.190;2023-02-28T04:01:28;108.80;;;59.10;;
57319;SDS011;43158;51.026;18.190;2023-02-28T04:03:54;32.80;;;22.20;;
57319;SDS011;43158;51.026;18.190;2023-02-28T04:06:21;38.10;;;24.50;;
57319;SDS011;43158;51.026;18.190;2023-02-28T04:08:47;40.80;;;27.00;;
57319;SDS011;43158;51.026;18.190;2023-02-28T04:11:23;72.40;;;43.00;;
57319;SDS011;43158;51.026;18.190;2023-02-28T04:13:50;33.30;;;23.70;;
57319;SDS011;43158;51.026;18.190;2023-02-28T04:16:16;27.40;;;21.00;;
57319;SDS011;43158;51.026;18.190;2023-02-28T04:18:42;27.80;;;22.00;;
57319;SDS011;43158;51.026;18.190;2023-02-28T04:21:11;22.50;;;18.90;;
57319;SDS011;43158;51.026;18.190;2023-02-28T04:23:37;26.50;;;20.70;;
57319;SDS011;43158;51.026;18.190;2023-02-28T04:26:03;95.60;;;47.50;;
57319;SDS011;43158;51.026;18.190;2023-02-28T04:28:29;70.10;;;37.40;;
57319;SDS011;43158;51.026;18.190;2023-02-28T04:31:03;85.90;;;46.40;;
57319;SDS011;43158;51.026;18.190;2023-02-28T04:33:30;141.30;;;66.60;;
57319;SDS011;43158;51.026;18.190;2023-02-28T04:36:04;93.20;;;43.40;;
57319;SDS011;43158;51.026;18.190;2023-02-28T04:38:35;68.40;;;38.20;;
57319;SDS011;43158;51.026;18.190;2023-02-28T04:41:01;80.80;;;43.10;;
57319;SDS011;43158;51.026;18.190;2023-02-28T04:43:27;169.20;;;89.30;;
57319;SDS011;43158;51.026;18.190;2023-02-28T04:45:53;130.60;;;68.70;;
57319;SDS011;43158;51.026;18.190;2023-02-28T04:48:25;107.80;;;52.60;;
57319;SDS011;43158;51.026;18.190;2023-02-28T04:50:51;38.70;;;25.90;;
57319;SDS011;43158;51.026;18.190;2023-02-28T04:53:17;31.20;;;23.10;;
57319;SDS011;43158;51.026;18.190;2023-02-28T04:55:43;27.60;;;22.60;;
57319;SDS011;43158;51.026;18.190;2023-02-28T04:58:08;35.50;;;25.10;;
57319;SDS011;43158;51.026;18.190;2023-02-28T05:00:34;38.80;;;26.80;;
57319;SDS011;43158;51.026;18.190;2023-02-28T05:03:00;37.20;;;25.50;;
57319;SDS011;43158;51.026;18.190;2023-02-28T05:05:25;52.00;;;33.00;;
57319;SDS011;43158;51.026;18.190;2023-02-28T05:07:51;57.20;;;38.40;;
57319;SDS011;43158;51.026;18.190;2023-02-28T05:10:19;33.40;;;25.90;;
57319;SDS011;43158;51.026;18.190;2023-02-28T05:12:44;68.20;;;42.30;;
57319;SDS011;43158;51.026;18.190;2023-02-28T05:15:14;51.80;;;37.40;;
57319;SDS011;43158;51.026;18.190;2023-02-28T05:20:05;45.90;;;34.80;;
57319;SDS011;43158;51.026;18.190;2023-02-28T05:22:31;49.70;;;36.50;;
57319;SDS011;43158;51.026;18.190;2023-02-28T05:24:57;65.10;;;46.50;;
57319;SDS011;43158;51.026;18.190;2023-02-28T05:27:23;83.20;;;58.50;;
57319;SDS011;43158;51.026;18.190;2023-02-28T05:29:49;74.40;;;45.40;;
57319;SDS011;43158;51.026;18.190;2023-02-28T05:32:14;67.00;;;46.10;;
57319;SDS011;43158;51.026;18.190;2023-02-28T05:34:40;74.80;;;47.50;;
57319;SDS011;43158;51.026;18.190;2023-02-28T05:37:08;66.70;;;44.70;;
57319;SDS011;43158;51.026;18.190;2023-02-28T05:39:36;109.10;;;67.80;;
57319;SDS011;43158;51.026;18.190;2023-02-28T05:42:02;141.90;;;73.90;;
57319;SDS011;43158;51.026;18.190;2023-02-28T05:44:28;87.10;;;49.60;;
57319;SDS011;43158;51.026;18.190;2023-02-28T05:46:54;111.70;;;56.90;;
57319;SDS011;43158;51.026;18.190;2023-02-28T05:49:19;104.40;;;53.40;;
57319;SDS011;43158;51.026;18.190;2023-02-28T05:51:45;95.10;;;45.60;;
57319;SDS011;43158;51.026;18.190;2023-02-28T05:54:11;46.70;;;30.90;;
57319;SDS011;43158;51.026;18.190;2023-02-28T05:56:37;50.20;;;32.90;;
57319;SDS011;43158;51.026;18.190;2023-02-28T05:59:09;53.90;;;35.00;;
57319;SDS011;43158;51.026;18.190;2023-02-28T06:01:40;39.60;;;28.30;;
57319;SDS011;43158;51.026;18.190;2023-02-28T06:04:07;55.50;;;34.40;;
57319;SDS011;43158;51.026;18.190;2023-02-28T06:06:33;55.50;;;37.40;;
57319;SDS011;43158;51.026;18.190;2023-02-28T06:09:04;75.40;;;41.80;;
57319;SDS011;43158;51.026;18.190;2023-02-28T06:11:30;54.30;;;36.00;;
57319;SDS011;43158;51.026;18.190;2023-02-28T06:13:56;57.10;;;36.40;;
57319;SDS011;43158;51.026;18.190;2023-02-28T06:16:23;68.40;;;42.20;;
57319;SDS011;43158;51.026;18.190;2023-02-28T06:18:49;47.10;;;31.80;;
57319;SDS011;43158;51.026;18.190;2023-02-28T06:21:15;39.50;;;27.70;;
57319;SDS011;43158;51.026;18.190;2023-02-28T06:23:41;34.80;;;27.00;;
57319;SDS011;43158;51.026;18.190;2023-02-28T06:26:07;29.50;;;23.80;;
57319;SDS011;43158;51.026;18.190;2023-02-28T06:28:32;29.20;;;24.50;;
57319;SDS011;43158;51.026;18.190;2023-02-28T06:30:58;31.10;;;24.80;;
57319;SDS011;43158;51.026;18.190;2023-02-28T06:33:24;31.80;;;24.50;;
57319;SDS011;43158;51.026;18.190;2023-02-28T06:35:52;31.90;;;26.70;;
57319;SDS011;43158;51.026;18.190;2023-02-28T06:38:18;33.90;;;26.20;;
57319;SDS011;43158;51.026;18.190;2023-02-28T06:40:44;32.60;;;25.10;;
57319;SDS011;43158;51.026;18.190;2023-02-28T06:43:10;33.00;;;28.20;;
57319;SDS011;43158;51.026;18.190;2023-02-28T06:45:42;36.20;;;29.20;;
57319;SDS011;43158;51.026;18.190;2023-02-28T06:48:08;31.40;;;27.20;;
57319;SDS011;43158;51.026;18.190;2023-02-28T06:50:35;35.90;;;24.00;;
57319;SDS011;43158;51.026;18.190;2023-02-28T06:53:01;30.10;;;24.50;;
57319;SDS011;43158;51.026;18.190;2023-02-28T06:55:27;31.20;;;24.80;;
57319;SDS011;43158;51.026;18.190;2023-02-28T06:57:52;36.90;;;26.70;;
57319;SDS011;43158;51.026;18.190;2023-02-28T07:00:20;31.30;;;25.10;;
57319;SDS011;43158;51.026;18.190;2023-02-28T07:02:45;33.70;;;23.40;;
57319;SDS011;43158;51.026;18.190;2023-02-28T07:05:12;28.40;;;23.70;;
57319;SDS011;43158;51.026;18.190;2023-02-28T07:07:39;26.80;;;22.40;;
57319;SDS011;43158;51.026;18.190;2023-02-28T07:10:09;30.40;;;23.40;;
57319;SDS011;43158;51.026;18.190;2023-02-28T07:12:36;27.70;;;22.90;;
57319;SDS011;43158;51.026;18.190;2023-02-28T07:15:02;28.50;;;21.60;;
57319;SDS011;43158;51.026;18.190;2023-02-28T07:17:28;23.90;;;21.00;;
57319;SDS011;43158;51.026;18.190;2023-02-28T07:19:54;24.30;;;21.50;;
57319;SDS011;43158;51.026;18.190;2023-02-28T07:22:20;32.80;;;24.40;;
57319;SDS011;43158;51.026;18.190;2023-02-28T07:24:45;30.80;;;24.60;;
57319;SDS011;43158;51.026;18.190;2023-02-28T07:27:11;33.40;;;25.70;;
57319;SDS011;43158;51.026;18.190;2023-02-28T07:29:37;35.70;;;28.00;;
57319;SDS011;43158;51.026;18.190;2023-02-28T07:32:03;51.00;;;38.90;;
57319;SDS011;43158;51.026;18.190;2023-02-28T07:34:29;26.30;;;22.30;;
57319;SDS011;43158;51.026;18.190;2023-02-28T07:36:55;42.00;;;31.20;;
57319;SDS011;43158;51.026;18.190;2023-02-28T07:39:21;27.00;;;22.40;;
57319;SDS011;43158;51.026;18.190;2023-02-28T07:41:47;26.20;;;21.40;;
57319;SDS011;43158;51.026;18.190;2023-02-28T07:44:13;29.20;;;24.00;;
57319;SDS011;43158;51.026;18.190;2023-02-28T07:46:39;38.50;;;28.30;;
57319;SDS011;43158;51.026;18.190;2023-02-28T07:49:05;26.80;;;21.00;;
57319;SDS011;43158;51.026;18.190;2023-02-28T07:51:31;39.70;;;29.90;;
57319;SDS011;43158;51.026;18.190;2023-02-28T07:53:57;28.80;;;25.60;;
57319;SDS011;43158;51.026;18.190;2023-02-28T07:56:23;25.60;;;21.20;;
57319;SDS011;43158;51.026;18.190;2023-02-28T07:58:49;35.50;;;23.50;;
57319;SDS011;43158;51.026;18.190;2023-02-28T08:01:16;30.30;;;21.80;;
57319;SDS011;43158;51.026;18.190;2023-02-28T08:03:43;35.90;;;26.30;;
57319;SDS011;43158;51.026;18.190;2023-02-28T08:06:14;54.00;;;35.90;;
57319;SDS011;43158;51.026;18.190;2023-02-28T08:08:41;31.80;;;22.60;;
57319;SDS011;43158;51.026;18.190;2023-02-28T08:11:07;24.50;;;18.40;;
57319;SDS011;43158;51.026;18.190;2023-02-28T08:13:33;18.20;;;15.20;;
57319;SDS011;43158;51.026;18.190;2023-02-28T08:16:00;12.30;;;9.50;;
57319;SDS011;43158;51.026;18.190;2023-02-28T08:18:27;15.40;;;11.00;;
57319;SDS011;43158;51.026;18.190;2023-02-28T08:20:53;13.70;;;10.90;;
57319;SDS011;43158;51.026;18.190;2023-02-28T08:23:19;12.70;;;10.70;;
57319;SDS011;43158;51.026;18.190;2023-02-28T08:25:52;49.20;;;24.50;;
57319;SDS011;43158;51.026;18.190;2023-02-28T08:28:17;88.70;;;38.80;;
57319;SDS011;43158;51.026;18.190;2023-02-28T08:30:44;20.80;;;16.20;;
57319;SDS011;43158;51.026;18.190;2023-02-28T08:33:09;20.40;;;13.20;;
57319;SDS011;43158;51.026;18.190;2023-02-28T08:35:36;29.10;;;25.70;;
57319;SDS011;43158;51.026;18.190;2023-02-28T08:38:02;20.70;;;18.10;;
57319;SDS011;43158;51.026;18.190;2023-02-28T08:40:28;19.10;;;15.70;;
57319;SDS011;43158;51.026;18.190;2023-02-28T08:42:55;19.20;;;16.90;;
57319;SDS011;43158;51.026;18.190;2023-02-28T08:45:20;16.90;;;15.10;;
57319;SDS011;43158;51.026;18.190;2023-02-28T08:47:46;17.10;;;15.10;;
57319;SDS011;43158;51.026;18.190;2023-02-28T08:50:12;31.10;;;20.30;;
57319;SDS011;43158;51.026;18.190;2023-02-28T08:52:42;43.50;;;25.30;;
57319;SDS011;43158;51.026;18.190;2023-02-28T08:55:08;16.90;;;13.60;;
57319;SDS011;43158;51.026;18.190;2023-02-28T08:57:34;19.00;;;15.10;;
57319;SDS011;43158;51.026;18.190;2023-02-28T09:00:00;7.40;;;6.00;;
57319;SDS011;43158;51.026;18.190;2023-02-28T09:02:30;11.90;;;9.40;;
57319;SDS011;43158;51.026;18.190;2023-02-28T09:04:57;11.90;;;10.70;;
57319;SDS011;43158;51.026;18.190;2023-02-28T09:07:24;8.60;;;7.80;;
57319;SDS011;43158;51.026;18.190;2023-02-28T09:09:51;10.90;;;8.80;;
57319;SDS011;43158;51.026;18.190;2023-02-28T09:12:21;12.40;;;11.00;;
57319;SDS011;43158;51.026;18.190;2023-02-28T09:14:48;11.80;;;10.30;;
57319;SDS011;43158;51.026;18.190;2023-02-28T09:17:14;11.90;;;10.60;;
57319;SDS011;43158;51.026;18.190;2023-02-28T09:19:41;12.70;;;11.20;;
57319;SDS011;43158;51.026;18.190;2023-02-28T09:22:07;14.00;;;11.80;;
57319;SDS011;43158;51.026;18.190;2023-02-28T09:24:33;12.60;;;11.30;;
57319;SDS011;43158;51.026;18.190;2023-02-28T09:26:59;11.80;;;10.50;;
57319;SDS011;43158;51.026;18.190;2023-02-28T09:29:25;12.30;;;11.10;;
57319;SDS011;43158;51.026;18.190;2023-02-28T09:31:52;15.10;;;13.10;;
57319;SDS011;43158;51.026;18.190;2023-02-28T09:34:18;13.10;;;11.00;;
57319;SDS011;43158;51.026;18.190;2023-02-28T09:36:45;14.00;;;12.30;;
57319;SDS011;43158;51.026;18.190;2023-02-28T09:39:11;13.40;;;12.00;;
57319;SDS011;43158;51.026;18.190;2023-02-28T09:41:41;13.50;;;12.10;;
57319;SDS011;43158;51.026;18.190;2023-02-28T09:47:01;12.30;;;11.00;;
57319;SDS011;43158;51.026;18.190;2023-02-28T09:49:39;11.40;;;10.30;;
57319;SDS011;43158;51.026;18.190;2023-02-28T09:52:13;11.60;;;10.10;;
57319;SDS011;43158;51.026;18.190;2023-02-28T09:54:42;12.30;;;10.10;;
57319;SDS011;43158;51.026;18.190;2023-02-28T09:57:13;11.70;;;10.50;;
57319;SDS011;43158;51.026;18.190;2023-02-28T10:12:51;11.00;;;9.90;;
57319;SDS011;43158;51.026;18.190;2023-02-28T10:15:18;12.40;;;10.50;;
57319;SDS011;43158;51.026;18.190;2023-02-28T10:17:45;10.70;;;9.70;;
57319;SDS011;43158;51.026;18.190;2023-02-28T10:20:19;10.50;;;9.30;;
57319;SDS011;43158;51.026;18.190;2023-02-28T10:25:26;10.00;;;9.00;;
57319;SDS011;43158;51.026;18.190;2023-02-28T10:27:53;10.50;;;9.10;;
57319;SDS011;43158;51.026;18.190;2023-02-28T10:30:20;10.60;;;9.30;;
57319;SDS011;43158;51.026;18.190;2023-02-28T10:32:50;10.10;;;8.40;;
57319;SDS011;43158;51.026;18.190;2023-02-28T10:35:20;26.40;;;15.40;;
57319;SDS011;43158;51.026;18.190;2023-02-28T10:37:48;13.90;;;10.80;;
57319;SDS011;43158;51.026;18.190;2023-02-28T10:43:03;11.10;;;10.00;;
57319;SDS011;43158;51.026;18.190;2023-02-28T10:45:30;12.40;;;11.10;;
57319;SDS011;43158;51.026;18.190;2023-02-28T10:47:58;12.30;;;10.30;;
57319;SDS011;43158;51.026;18.190;2023-02-28T10:50:26;34.50;;;23.60;;
57319;SDS011;43158;51.026;18.190;2023-02-28T10:52:52;29.00;;;21.20;;
57319;SDS011;43158;51.026;18.190;2023-02-28T10:55:25;11.70;;;10.10;;
57319;SDS011;43158;51.026;18.190;2023-02-28T10:57:51;11.60;;;10.50;;
57319;SDS011;43158;51.026;18.190;2023-02-28T11:00:25;10.80;;;9.80;;
57319;SDS011;43158;51.026;18.190;2023-02-28T11:02:56;13.00;;;11.80;;
57319;SDS011;43158;51.026;18.190;2023-02-28T11:07:55;10.80;;;9.70;;
57319;SDS011;43158;51.026;18.190;2023-02-28T11:10:23;10.50;;;9.40;;
57319;SDS011;43158;51.026;18.190;2023-02-28T11:12:53;19.30;;;17.30;;
57319;SDS011;43158;51.026;18.190;2023-02-28T11:17:53;11.30;;;10.20;;
57319;SDS011;43158;51.026;18.190;2023-02-28T11:20:23;14.10;;;12.40;;
57319;SDS011;43158;51.026;18.190;2023-02-28T11:22:50;13.70;;;12.40;;
57319;SDS011;43158;51.026;18.190;2023-02-28T11:25:36;11.90;;;10.80;;
57319;SDS011;43158;51.026;18.190;2023-02-28T11:28:04;17.90;;;16.10;;
57319;SDS011;43158;51.026;18.190;2023-02-28T11:30:33;11.30;;;10.20;;
57319;SDS011;43158;51.026;18.190;2023-02-28T11:33:00;13.90;;;12.50;;
57319;SDS011;43158;51.026;18.190;2023-02-28T11:35:36;11.00;;;10.00;;
57319;SDS011;43158;51.026;18.190;2023-02-28T11:38:05;81.90;;;51.90;;
57319;SDS011;43158;51.026;18.190;2023-02-28T11:40:45;11.40;;;10.30;;
57319;SDS011;43158;51.026;18.190;2023-02-28T11:43:57;11.20;;;10.20;;
57319;SDS011;43158;51.026;18.190;2023-02-28T11:46:24;12.90;;;11.60;;
57319;SDS011;43158;51.026;18.190;2023-02-28T11:49:03;11.30;;;10.30;;
57319;SDS011;43158;51.026;18.190;2023-02-28T11:56:50;10.70;;;9.50;;
57319;SDS011;43158;51.026;18.190;2023-02-28T12:07:09;10.20;;;9.20;;
57319;SDS011;43158;51.026;18.190;2023-02-28T12:09:43;10.50;;;9.40;;
57319;SDS011;43158;51.026;18.190;2023-02-28T12:17:18;43.10;;;31.50;;
57319;SDS011;43158;51.026;18.190;2023-02-28T12:22:28;12.40;;;11.00;;
57319;SDS011;43158;51.026;18.190;2023-02-28T12:25:02;11.50;;;10.40;;
57319;SDS011;43158;51.026;18.190;2023-02-28T12:27:37;15.20;;;13.60;;
57319;SDS011;43158;51.026;18.190;2023-02-28T12:30:05;11.40;;;10.30;;
57319;SDS011;43158;51.026;18.190;2023-02-28T12:32:43;11.40;;;10.40;;
57319;SDS011;43158;51.026;18.190;2023-02-28T12:35:11;11.40;;;10.40;;
57319;SDS011;43158;51.026;18.190;2023-02-28T12:37:43;11.40;;;10.30;;
57319;SDS011;43158;51.026;18.190;2023-02-28T12:40:16;11.30;;;10.20;;
57319;SDS011;43158;51.026;18.190;2023-02-28T12:42:45;10.80;;;9.70;;
57319;SDS011;43158;51.026;18.190;2023-02-28T12:47:38;12.30;;;11.10;;
57319;SDS011;43158;51.026;18.190;2023-02-28T12:50:07;13.40;;;12.20;;
57319;SDS011;43158;51.026;18.190;2023-02-28T12:55:23;18.20;;;14.40;;
57319;SDS011;43158;51.026;18.190;2023-02-28T13:00:39;12.20;;;11.00;;
57319;SDS011;43158;51.026;18.190;2023-02-28T13:05:41;14.30;;;12.90;;
57319;SDS011;43158;51.026;18.190;2023-02-28T13:10:40;13.90;;;12.50;;
57319;SDS011;43158;51.026;18.190;2023-02-28T13:13:11;13.80;;;12.40;;
57319;SDS011;43158;51.026;18.190;2023-02-28T13:15:38;13.10;;;11.80;;
57319;SDS011;43158;51.026;18.190;2023-02-28T13:18:20;12.70;;;11.60;;
57319;SDS011;43158;51.026;18.190;2023-02-28T13:20:52;15.60;;;14.20;;
57319;SDS011;43158;51.026;18.190;2023-02-28T13:26:02;12.90;;;11.60;;
57319;SDS011;43158;51.026;18.190;2023-02-28T13:31:13;13.40;;;12.20;;
57319;SDS011;43158;51.026;18.190;2023-02-28T13:38:45;20.90;;;18.90;;
57319;SDS011;43158;51.026;18.190;2023-02-28T13:49:19;16.10;;;14.60;;
57319;SDS011;43158;51.026;18.190;2023-02-28T13:51:52;14.70;;;13.40;;
57319;SDS011;43158;51.026;18.190;2023-02-28T13:54:21;16.60;;;14.90;;
57319;SDS011;43158;51.026;18.190;2023-02-28T13:56:53;14.40;;;13.20;;
57319;SDS011;43158;51.026;18.190;2023-02-28T14:04:49;20.70;;;18.80;;
57319;SDS011;43158;51.026;18.190;2023-02-28T14:07:50;19.50;;;17.50;;
57319;SDS011;43158;51.026;18.190;2023-02-28T14:10:08;17.10;;;15.40;;
57319;SDS011;43158;51.026;18.190;2023-02-28T14:12:53;21.90;;;19.60;;
57319;SDS011;43158;51.026;18.190;2023-02-28T14:23:47;23.70;;;21.30;;
57319;SDS011;43158;51.026;18.190;2023-02-28T14:26:26;16.00;;;14.30;;
57319;SDS011;43158;51.026;18.190;2023-02-28T14:34:26;20.50;;;18.50;;
57319;SDS011;43158;51.026;18.190;2023-02-28T14:36:55;24.20;;;19.80;;
57319;SDS011;43158;51.026;18.190;2023-02-28T14:41:49;17.00;;;15.40;;
57319;SDS011;43158;51.026;18.190;2023-02-28T14:46:42;23.40;;;21.00;;
57319;SDS011;43158;51.026;18.190;2023-02-28T14:51:43;21.90;;;19.80;;
57319;SDS011;43158;51.026;18.190;2023-02-28T14:54:12;18.80;;;17.00;;
57319;SDS011;43158;51.026;18.190;2023-02-28T14:56:39;21.50;;;19.60;;
57319;SDS011;43158;51.026;18.190;2023-02-28T14:59:06;22.80;;;20.90;;
57319;SDS011;43158;51.026;18.190;2023-02-28T15:01:46;22.30;;;20.10;;
57319;SDS011;43158;51.026;18.190;2023-02-28T15:04:16;19.70;;;17.90;;
57319;SDS011;43158;51.026;18.190;2023-02-28T15:06:43;18.60;;;16.70;;
57319;SDS011;43158;51.026;18.190;2023-02-28T15:09:16;20.40;;;18.30;;
57319;SDS011;43158;51.026;18.190;2023-02-28T15:11:47;18.70;;;16.90;;
57319;SDS011;43158;51.026;18.190;2023-02-28T15:14:18;18.30;;;16.50;;
57319;SDS011;43158;51.026;18.190;2023-02-28T15:16:45;23.30;;;21.10;;
57319;SDS011;43158;51.026;18.190;2023-02-28T15:19:14;29.50;;;26.60;;
57319;SDS011;43158;51.026;18.190;2023-02-28T15:21:42;64.40;;;57.30;;
57319;SDS011;43158;51.026;18.190;2023-02-28T15:26:56;22.70;;;20.40;;
57319;SDS011;43158;51.026;18.190;2023-02-28T15:29:23;20.10;;;18.00;;
57319;SDS011;43158;51.026;18.190;2023-02-28T15:34:18;21.40;;;19.30;;
57319;SDS011;43158;51.026;18.190;2023-02-28T15:36:44;21.70;;;19.60;;
57319;SDS011;43158;51.026;18.190;2023-02-28T15:39:21;27.80;;;25.10;;
57319;SDS011;43158;51.026;18.190;2023-02-28T15:41:47;29.70;;;26.70;;
57319;SDS011;43158;51.026;18.190;2023-02-28T15:44:25;28.30;;;25.40;;
57319;SDS011;43158;51.026;18.190;2023-02-28T15:49:24;37.10;;;33.10;;
57319;SDS011;43158;51.026;18.190;2023-02-28T15:51:50;33.00;;;29.50;;
57319;SDS011;43158;51.026;18.190;2023-02-28T15:54:23;31.70;;;28.30;;
57319;SDS011;43158;51.026;18.190;2023-02-28T15:56:51;33.20;;;29.90;;
57319;SDS011;43158;51.026;18.190;2023-02-28T15:59:18;33.00;;;29.40;;
57319;SDS011;43158;51.026;18.190;2023-02-28T16:01:44;27.80;;;24.70;;
57319;SDS011;43158;51.026;18.190;2023-02-28T16:04:15;32.30;;;26.90;;
57319;SDS011;43158;51.026;18.190;2023-02-28T16:07:23;29.40;;;25.80;;
57319;SDS011;43158;51.026;18.190;2023-02-28T16:09:30;51.40;;;37.70;;
57319;SDS011;43158;51.026;18.190;2023-02-28T16:11:59;48.70;;;39.20;;
57319;SDS011;43158;51.026;18.190;2023-02-28T16:14:27;36.70;;;30.40;;
57319;SDS011;43158;51.026;18.190;2023-02-28T16:16:56;28.80;;;24.70;;
57319;SDS011;43158;51.026;18.190;2023-02-28T16:19:22;24.10;;;21.60;;
57319;SDS011;43158;51.026;18.190;2023-02-28T16:21:49;30.90;;;25.00;;
57319;SDS011;43158;51.026;18.190;2023-02-28T16:24:15;30.50;;;24.40;;
57319;SDS011;43158;51.026;18.190;2023-02-28T16:26:42;33.50;;;26.50;;
57319;SDS011;43158;51.026;18.190;2023-02-28T16:29:13;39.60;;;28.90;;
57319;SDS011;43158;51.026;18.190;2023-02-28T16:31:42;60.50;;;37.80;;
57319;SDS011;43158;51.026;18.190;2023-02-28T16:34:08;65.60;;;42.90;;
57319;SDS011;43158;51.026;18.190;2023-02-28T16:36:34;65.50;;;42.30;;
57319;SDS011;43158;51.026;18.190;2023-02-28T16:39:00;60.70;;;41.00;;
57319;SDS011;43158;51.026;18.190;2023-02-28T16:41:28;62.60;;;42.50;;
57319;SDS011;43158;51.026;18.190;2023-02-28T16:43:54;57.10;;;39.20;;
57319;SDS011;43158;51.026;18.190;2023-02-28T16:46:30;57.60;;;40.10;;
57319;SDS011;43158;51.026;18.190;2023-02-28T16:48:57;63.70;;;40.50;;